Terminal Aerodrome Forecast
Issued by NWS

Home | Current Version | Previous Version | Text Only | Print | Product List | Glossary On
Versions: 1 2 3 4 5 6 7 8 9 10 11 12 13 14 15 16 17 18 19 20 21 22 23 24 25 26 27
027
FTUS42 KCAE 220830 AAA
TAFCUB
TAF AMD
KCUB 220830Z 2209/2306 00000KT P6SM FEW250
      TEMPO 2209/2213 3SM BR BKN008
     FM221300 VRB03KT P6SM SCT025
     FM221800 20005KT P6SM VCSH BKN040
     FM230200 VRB03KT P6SM SCT040=

USA.gov is the U.S. government's official web portal to all federal, state and local government web resources and services.